CheckWX is a tool to help pilots better visualize weather data.  It is not intended as a substitute for an official pre-flight weather briefing.

19:55:25 UTC

RODN TAF
Kadena Air Base Airport
Japan
TAF AMD RODN 251910Z 2519/2622 12012KT 9999 SCT008 QNH2970INS TEMPO 2519/2522 BKN008 BECMG 2521/2522 14012G18KT 6000 -SHRA SCT010 BKN020 BKN060 BKN250 QNH2965INS TEMPO 2523/2605 15025G30KT 4800 -TSRA BKN010CB BKN040 OVC200 BECMG 2610/2612 15018G24KT 4800 -SHRA VCTS BKN015CB QNH2960INS TX28/2603Z TN21/2521Z

Jun-25@
19:00 UTC

Jun-25 @ 19:00 UTC

Jun-25@
21:00 UTC

Jun-25 @ 21:00 UTC

TAF AMD RODN 251910Z 2519/2622 12012KT 9999 SCT008 QNH2970INS
Wind
  • 120° at 12 KTS
Cloud Levels
  • Scattered at 800' AGL

Jun-25@
19:00 UTC

Jun-25 @ 19:00 UTC

Jun-25@
22:00 UTC

Jun-25 @ 22:00 UTC

TEMPO 2519/2522 BKN008

Temporary

Temporary Changes expected for less than half the time period

Cloud Levels
  • Broken at 800' AGL

Jun-25@
21:00 UTC

Jun-25 @ 21:00 UTC

Jun-26@
10:00 UTC

Jun-26 @ 10:00 UTC

BECMG 2521/2522 14012G18KT 6000 -SHRA SCT010 BKN020 BKN060 BKN250 QNH2965INS

Becoming

Becoming Conditions expected by Tue, Jun 25, 2019 @ 22:00 UTC

Wind
  • 140° at 12 KTS
  • {Gusting to 18 KTS
Conditions
Light Rain
Cloud Levels
  • Scattered at 1,000' AGL
  • Broken at 2,000' AGL
  • Broken at 6,000' AGL

Jun-25@
23:00 UTC

Jun-25 @ 23:00 UTC

Jun-26@
05:00 UTC

Jun-26 @ 05:00 UTC

TEMPO 2523/2605 15025G30KT 4800 -TSRA BKN010CB BKN040 OVC200

Temporary

Temporary Changes expected for less than half the time period

Wind
  • 150° at 25 KTS
  • {Gusting to 30 KTS
Conditions
Light Thunderstorm, Light Rain
Cloud Levels
  • Broken at 1,000' AGL
  • Broken at 4,000' AGL
  • Overcast at 20,000' AGL

Jun-26@
10:00 UTC

Jun-26 @ 10:00 UTC

Jun-26@
22:00 UTC

Jun-26 @ 22:00 UTC

BECMG 2610/2612 15018G24KT 4800 -SHRA VCTS BKN015CB QNH2960INS TX28/2603Z TN21/2521Z

Becoming

Becoming Conditions expected by Wed, Jun 26, 2019 @ 12:00 UTC

Wind
  • 150° at 18 KTS
  • {Gusting to 24 KTS
Conditions
Light Rain, Area Thunderstorm
Cloud Levels
  • Broken at 1,500' AGL